KFGN

Flag Island Airport

Flag Island, Minnesota, USA
METAR KFGN 180115Z AUTO 19008KT 10SM CLR 02/M04 A3027 RMK AO2
Observed Flight Rules
Oct-18 @ 01:15 UTC (9 minutes ago) Visual Flight Rules
Wind Visibility Clouds
190° at 8 knots 10 miles
  • Clear skies
Temperatures Readings
Current 2°C / 36°F
Dewpoint -4°C / 25°F
Humidity 65%
Altimeter 30.27" Hg
Pressure 1025 hPa
Elevation 328
METAR KFGN 180115Z AUTO 19008KT 10SM CLR 02/M04 A3027 RMK AO2
Observed Flight Rules
Oct-18 @ 01:15 UTC
(9 minutes ago)
VFR
Wind Visibility
190° at 8 knots 10 miles
Clouds
  • Clear skies
Temperature Dewpoint
2°C / 36°F -4°C / 25°F
Humidity Altimeter Pressure
65% 30.27" Hg 1025 hPa